createdAt,value
2022-09-22T00:01:05.443Z,8.29
2022-09-22T00:03:34.791Z,8.26
2022-09-22T00:06:04.374Z,8.24
2022-09-22T00:08:34.579Z,8.22
2022-09-22T00:11:09.343Z,8.19
2022-09-22T00:13:38.451Z,8.18
2022-09-22T00:16:10.193Z,8.20
2022-09-22T00:18:38.451Z,8.18
2022-09-22T00:21:09.194Z,8.16
2022-09-22T00:23:37.184Z,8.12
2022-09-22T00:26:06.602Z,8.12
2022-09-22T00:28:35.047Z,8.10
2022-09-22T00:31:07.403Z,8.08
2022-09-22T00:33:35.582Z,8.08
2022-09-22T00:36:04.574Z,8.07
2022-09-22T00:38:33.264Z,8.03
2022-09-22T00:41:01.863Z,7.98
2022-09-22T00:43:32.372Z,7.97
2022-09-22T00:46:08.257Z,7.95
2022-09-22T00:48:44.293Z,7.94
2022-09-22T00:51:14.699Z,7.92
2022-09-22T00:53:43.341Z,7.92
2022-09-22T00:56:14.873Z,7.90
2022-09-22T00:58:46.249Z,7.89
2022-09-22T01:01:15.164Z,7.83
2022-09-22T01:03:45.160Z,7.81
2022-09-22T01:06:17.517Z,7.77
2022-09-22T01:08:46.301Z,7.79
2022-09-22T01:11:15.891Z,7.79
2022-09-22T01:13:53.520Z,7.76
2022-09-22T01:16:34.034Z,7.75
2022-09-22T01:19:25.833Z,7.73
2022-09-22T01:22:04.036Z,7.71
2022-09-22T01:24:49.650Z,7.68
2022-09-22T01:27:54.180Z,7.68
2022-09-22T01:30:25.353Z,7.64
2022-09-22T01:33:23.138Z,7.63
2022-09-22T01:36:00.970Z,7.63
2022-09-22T01:38:34.831Z,7.61
2022-09-22T01:41:07.996Z,7.62
2022-09-22T01:43:44.021Z,7.60
2022-09-22T01:46:18.387Z,7.59
2022-09-22T01:48:50.339Z,7.59
2022-09-22T01:51:22.166Z,7.56
2022-09-22T01:53:56.718Z,7.55
2022-09-22T01:56:26.888Z,7.55
2022-09-22T01:58:58.803Z,7.55
2022-09-22T02:01:31.932Z,7.50
2022-09-22T02:04:05.457Z,7.52
2022-09-22T02:06:37.627Z,7.51
2022-09-22T02:09:07.891Z,7.47
2022-09-22T02:11:36.139Z,7.45
2022-09-22T02:14:05.637Z,7.41
2022-09-22T02:16:35.661Z,7.40
2022-09-22T02:19:12.932Z,7.39
2022-09-22T02:21:42.752Z,7.37
2022-09-22T02:24:28.658Z,7.38
2022-09-22T02:26:57.697Z,7.38
2022-09-22T02:29:27.962Z,7.40
2022-09-22T02:31:59.565Z,7.38
2022-09-22T02:34:28.685Z,7.35
2022-09-22T02:37:02.256Z,7.31
2022-09-22T02:39:35.357Z,7.32
2022-09-22T02:42:14.844Z,7.32
2022-09-22T02:44:49.162Z,7.31
2022-09-22T02:47:23.375Z,7.30
2022-09-22T02:49:52.395Z,7.26
2022-09-22T02:52:21.810Z,7.25
2022-09-22T02:54:49.607Z,7.24
2022-09-22T02:57:17.387Z,7.22
2022-09-22T02:59:45.095Z,7.18
2022-09-22T03:02:13.037Z,7.19
2022-09-22T03:04:42.141Z,7.17
2022-09-22T03:07:09.929Z,7.15
2022-09-22T03:09:37.831Z,7.13
2022-09-22T03:12:06.193Z,7.13
2022-09-22T03:14:34.041Z,7.10
2022-09-22T03:17:01.985Z,7.05
2022-09-22T03:19:29.721Z,7.03
2022-09-22T03:21:58.795Z,7.03
2022-09-22T03:24:26.582Z,7.05
2022-09-22T03:26:54.383Z,7.05
2022-09-22T03:29:22.143Z,7.05
2022-09-22T03:31:49.962Z,7.05
2022-09-22T03:34:17.732Z,7.02
2022-09-22T03:36:45.670Z,6.99
2022-09-22T03:39:14.764Z,6.99
2022-09-22T03:41:42.515Z,6.99
2022-09-22T03:44:10.589Z,6.95
2022-09-22T03:46:38.348Z,6.96
2022-09-22T03:49:06.092Z,6.95
2022-09-22T03:51:34.261Z,6.92
2022-09-22T03:54:02.116Z,6.90
2022-09-22T03:56:31.371Z,6.90
2022-09-22T03:58:59.160Z,6.89
2022-09-22T04:01:27.009Z,6.89
2022-09-22T04:03:54.882Z,6.89
2022-09-22T04:06:22.711Z,6.89
2022-09-22T04:08:50.655Z,6.87
2022-09-22T04:11:18.391Z,6.88
2022-09-22T04:13:47.538Z,6.86
2022-09-22T04:16:15.393Z,6.84
2022-09-22T04:18:43.146Z,6.80
2022-09-22T04:21:11.039Z,6.80
2022-09-22T04:23:38.954Z,6.80
2022-09-22T04:26:07.285Z,6.80
2022-09-22T04:28:35.102Z,6.79
2022-09-22T04:31:04.727Z,6.78
2022-09-22T04:33:32.573Z,6.76
2022-09-22T04:36:00.779Z,6.74
2022-09-22T04:38:28.558Z,6.74
2022-09-22T04:40:57.095Z,6.72
2022-09-22T04:43:25.090Z,6.72
2022-09-22T04:45:53.035Z,6.71
2022-09-22T04:48:22.229Z,6.71
2022-09-22T04:50:50.081Z,6.69
2022-09-22T04:53:17.743Z,6.69
2022-09-22T04:55:52.307Z,6.71
2022-09-22T04:58:20.341Z,6.71
2022-09-22T05:00:48.086Z,6.72
2022-09-22T05:03:21.375Z,6.69
2022-09-22T05:05:52.822Z,6.71
2022-09-22T05:08:20.727Z,6.69
2022-09-22T05:10:48.670Z,6.71
2022-09-22T05:13:16.628Z,6.71
2022-09-22T05:15:44.515Z,6.72
2022-09-22T05:18:12.321Z,6.71
2022-09-22T05:20:40.239Z,6.76
2022-09-22T05:23:09.367Z,6.76
2022-09-22T05:25:37.203Z,6.78
2022-09-22T05:28:05.074Z,6.78
2022-09-22T05:30:32.902Z,6.83
2022-09-22T05:33:00.830Z,6.86
2022-09-22T05:35:31.845Z,6.88
2022-09-22T05:38:03.846Z,6.87
2022-09-22T05:40:33.144Z,6.89
2022-09-22T05:43:01.032Z,6.93
2022-09-22T05:45:29.007Z,6.93
2022-09-22T05:47:56.900Z,6.95
2022-09-22T05:50:24.988Z,7.01
2022-09-22T05:52:52.855Z,7.07
2022-09-22T05:55:20.610Z,7.13
2022-09-22T05:57:56.864Z,7.17
2022-09-22T06:00:24.685Z,7.21
2022-09-22T06:02:57.716Z,7.27
2022-09-22T06:05:26.157Z,7.31
2022-09-22T06:08:00.960Z,7.37
2022-09-22T06:10:29.111Z,7.40
2022-09-22T06:13:02.169Z,7.46
2022-09-22T06:15:31.097Z,7.51
2022-09-22T06:17:58.824Z,7.55
2022-09-22T06:20:26.629Z,7.60
2022-09-22T06:22:54.988Z,7.63
2022-09-22T06:25:23.332Z,7.66
2022-09-22T06:27:59.960Z,7.71
2022-09-22T06:30:31.323Z,7.74
2022-09-22T06:32:59.441Z,7.80
2022-09-22T06:35:28.137Z,7.86
2022-09-22T06:37:59.479Z,7.92
2022-09-22T06:40:29.160Z,7.97
2022-09-22T06:43:02.028Z,8.04
2022-09-22T06:45:32.100Z,8.10
2022-09-22T06:48:00.482Z,8.17
2022-09-22T06:50:31.112Z,8.24
2022-09-22T06:53:00.739Z,8.30
2022-09-22T06:55:29.678Z,8.38
2022-09-22T06:57:58.878Z,8.45
2022-09-22T07:00:31.271Z,8.49
2022-09-22T07:03:06.224Z,8.59
2022-09-22T07:05:34.768Z,8.63
2022-09-22T07:08:04.711Z,8.71
2022-09-22T07:10:37.729Z,8.79
2022-09-22T07:13:06.351Z,8.84
2022-09-22T07:15:35.551Z,8.89
2022-09-22T07:18:05.421Z,8.96
2022-09-22T07:20:33.701Z,9.03
2022-09-22T07:23:01.472Z,9.11
2022-09-22T07:25:29.741Z,9.17
2022-09-22T07:27:58.053Z,9.21
2022-09-22T07:30:27.025Z,9.30
2022-09-22T07:32:54.892Z,9.38
2022-09-22T07:35:24.770Z,9.43
2022-09-22T07:37:56.941Z,9.50
2022-09-22T07:40:24.929Z,9.59
2022-09-22T07:42:52.825Z,9.69
2022-09-22T07:45:21.921Z,9.74
2022-09-22T07:48:07.313Z,9.83
2022-09-22T07:50:36.467Z,9.92
2022-09-22T07:53:05.105Z,9.98
2022-09-22T07:55:36.696Z,10.08
2022-09-22T07:58:04.425Z,10.17
2022-09-22T08:00:33.714Z,10.22
2022-09-22T08:03:01.964Z,10.36
2022-09-22T08:05:30.441Z,10.46
2022-09-22T08:08:02.192Z,10.55
2022-09-22T08:10:33.865Z,10.63
2022-09-22T08:13:03.006Z,10.77
2022-09-22T08:15:30.968Z,10.87
2022-09-22T08:17:59.045Z,10.94
2022-09-22T08:20:29.141Z,11.03
2022-09-22T08:23:02.988Z,11.09
2022-09-22T08:25:31.053Z,11.29
2022-09-22T08:28:01.043Z,11.43
2022-09-22T08:30:28.787Z,11.47
2022-09-22T08:32:56.955Z,11.56
2022-09-22T08:35:24.678Z,11.67
2022-09-22T08:37:52.391Z,11.80
2022-09-22T08:40:24.099Z,11.82
2022-09-22T08:42:55.581Z,11.90
2022-09-22T08:45:31.793Z,11.97
2022-09-22T08:48:21.037Z,12.04
2022-09-22T08:51:08.641Z,12.30
2022-09-22T08:53:43.404Z,12.42
2022-09-22T08:56:23.285Z,12.51
2022-09-22T08:58:59.033Z,12.63
2022-09-22T09:01:45.652Z,12.71
2022-09-22T09:04:42.427Z,12.78
2022-09-22T09:07:21.168Z,12.85
2022-09-22T09:10:03.006Z,12.91
2022-09-22T09:12:59.355Z,13.00
2022-09-22T09:15:41.621Z,13.05
2022-09-22T09:18:15.675Z,13.11
2022-09-22T09:20:46.916Z,13.15
2022-09-22T09:23:19.274Z,13.22
2022-09-22T09:25:50.631Z,13.29
2022-09-22T09:28:27.747Z,13.39
2022-09-22T09:31:04.694Z,13.66
2022-09-22T09:33:40.432Z,13.73
2022-09-22T09:38:50.201Z,13.87
2022-09-22T09:41:20.648Z,13.89
2022-09-22T09:43:54.352Z,14.05
2022-09-22T09:46:37.453Z,14.14
2022-09-22T09:49:12.410Z,14.15
2022-09-22T09:51:42.325Z,14.13
2022-09-22T09:54:16.916Z,14.18
2022-09-22T09:57:06.439Z,14.16
2022-09-22T09:59:53.547Z,14.16
2022-09-22T10:02:27.363Z,14.38
2022-09-22T10:04:57.232Z,14.37
2022-09-22T10:07:28.092Z,14.41
2022-09-22T10:09:57.039Z,14.44
2022-09-22T10:12:27.986Z,14.49
2022-09-22T10:14:59.216Z,14.36
2022-09-22T10:17:30.823Z,14.18
2022-09-22T10:20:24.068Z,14.29
2022-09-22T10:22:52.252Z,14.42
2022-09-22T10:25:23.039Z,14.53
2022-09-22T10:28:02.071Z,14.66
2022-09-22T10:30:33.052Z,14.71
2022-09-22T10:33:14.440Z,14.89
2022-09-22T10:35:44.149Z,15.01
2022-09-22T10:38:22.960Z,14.97
2022-09-22T10:40:57.212Z,15.21
2022-09-22T10:43:37.000Z,15.09
2022-09-22T10:46:26.359Z,14.98
2022-09-22T10:48:56.570Z,15.27
2022-09-22T10:51:41.570Z,15.58
2022-09-22T10:54:21.830Z,15.83
2022-09-22T10:56:53.140Z,15.92
2022-09-22T10:59:37.256Z,15.85
2022-09-22T11:02:29.944Z,15.76
2022-09-22T11:05:11.304Z,15.67
2022-09-22T11:08:16.629Z,15.68
2022-09-22T11:11:18.145Z,15.57
2022-09-22T11:13:57.543Z,15.76
2022-09-22T11:16:38.961Z,15.85
2022-09-22T11:19:23.007Z,15.89
2022-09-22T11:22:05.647Z,16.12
2022-09-22T11:24:47.626Z,16.41
2022-09-22T11:27:26.248Z,16.62
2022-09-22T11:30:11.036Z,16.61
2022-09-22T11:33:02.256Z,16.56
2022-09-22T11:35:43.850Z,16.53
2022-09-22T11:38:29.336Z,16.61
2022-09-22T11:41:19.480Z,16.45
2022-09-22T11:44:25.265Z,16.40
2022-09-22T11:47:07.939Z,16.60
2022-09-22T11:49:52.615Z,16.65
2022-09-22T11:52:43.670Z,16.53
2022-09-22T11:55:25.201Z,16.26
2022-09-22T11:57:58.684Z,16.24
2022-09-22T12:00:29.472Z,16.35
2022-09-22T12:03:02.734Z,16.47
2022-09-22T12:05:37.065Z,16.51
2022-09-22T12:08:09.412Z,16.59
2022-09-22T12:10:40.779Z,16.84
2022-09-22T12:13:15.284Z,17.16
2022-09-22T12:15:50.737Z,17.26
2022-09-22T12:18:27.113Z,17.10
2022-09-22T12:21:02.345Z,17.09
2022-09-22T12:23:45.257Z,17.16
2022-09-22T12:26:26.392Z,17.24
2022-09-22T12:28:55.701Z,17.26
2022-09-22T12:31:34.805Z,17.21
2022-09-22T12:34:04.476Z,17.11
2022-09-22T12:36:35.501Z,16.87
2022-09-22T12:39:18.064Z,16.78
2022-09-22T12:41:49.309Z,16.89
2022-09-22T12:44:22.123Z,17.11
2022-09-22T12:46:51.233Z,17.31
2022-09-22T12:49:22.667Z,17.48
2022-09-22T12:51:52.056Z,17.69
2022-09-22T12:54:39.370Z,17.76
2022-09-22T12:57:29.524Z,17.66
2022-09-22T13:00:24.400Z,17.66
2022-09-22T13:02:54.514Z,17.63
2022-09-22T13:05:37.132Z,17.67
2022-09-22T13:08:05.105Z,17.68
2022-09-22T13:10:50.474Z,17.93
2022-09-22T13:13:25.072Z,17.92
2022-09-22T13:15:59.307Z,17.86
2022-09-22T13:18:35.581Z,17.88
2022-09-22T13:21:19.695Z,17.95
2022-09-22T13:23:57.535Z,17.95
2022-09-22T13:26:29.971Z,18.05
2022-09-22T13:29:03.213Z,18.03
2022-09-22T13:31:37.010Z,18.20
2022-09-22T13:34:23.816Z,18.15
2022-09-22T13:36:54.596Z,18.12
2022-09-22T13:39:25.088Z,18.21
2022-09-22T13:41:59.295Z,18.16
2022-09-22T13:44:30.678Z,18.04
2022-09-22T13:47:01.492Z,18.01
2022-09-22T13:49:33.143Z,18.06
2022-09-22T13:52:05.133Z,18.09
2022-09-22T13:54:36.198Z,18.27
2022-09-22T13:57:08.936Z,18.32
2022-09-22T13:59:42.212Z,18.37
2022-09-22T14:02:12.092Z,18.34
2022-09-22T14:04:50.687Z,18.30
2022-09-22T14:07:20.272Z,18.33
2022-09-22T14:09:49.832Z,18.53
2022-09-22T14:12:20.248Z,18.73
2022-09-22T14:14:48.015Z,18.78
2022-09-22T14:17:20.313Z,18.74
2022-09-22T14:19:57.132Z,18.64
2022-09-22T14:22:27.049Z,18.71
2022-09-22T14:24:58.486Z,18.80
2022-09-22T14:27:32.474Z,18.85
2022-09-22T14:30:01.587Z,18.98
2022-09-22T14:32:36.072Z,19.03
2022-09-22T14:35:06.637Z,18.88
2022-09-22T14:37:39.087Z,18.97
2022-09-22T14:40:15.708Z,19.06
2022-09-22T14:42:57.304Z,19.08
2022-09-22T14:45:27.306Z,19.06
2022-09-22T14:48:18.152Z,18.81
2022-09-22T14:50:49.294Z,18.59
2022-09-22T14:53:21.742Z,18.52
2022-09-22T14:55:51.577Z,18.33
2022-09-22T14:58:24.739Z,18.38
2022-09-22T15:01:13.628Z,18.26
2022-09-22T15:03:44.826Z,18.29
2022-09-22T15:06:14.564Z,18.24
2022-09-22T15:08:48.609Z,18.19
2022-09-22T15:11:16.445Z,18.12
2022-09-22T15:13:47.004Z,18.08
2022-09-22T15:16:36.559Z,17.98
2022-09-22T15:19:04.568Z,17.94
2022-09-22T15:21:38.159Z,17.90
2022-09-22T15:24:06.785Z,17.90
2022-09-22T15:26:34.583Z,17.88
2022-09-22T15:29:03.663Z,17.89
2022-09-22T15:31:32.386Z,17.89
2022-09-22T15:34:02.979Z,17.85
2022-09-22T15:36:32.886Z,17.80
2022-09-22T15:39:06.581Z,17.83
2022-09-22T15:41:35.016Z,17.81
2022-09-22T15:44:04.500Z,17.61
2022-09-22T15:46:35.161Z,17.46
2022-09-22T15:49:08.822Z,17.45
2022-09-22T15:51:36.658Z,17.53
2022-09-22T15:54:07.112Z,17.73
2022-09-22T15:56:34.902Z,17.95
2022-09-22T15:59:05.337Z,18.13
2022-09-22T16:01:33.073Z,18.27
2022-09-22T16:04:01.437Z,18.43
2022-09-22T16:06:29.590Z,18.59
2022-09-22T16:08:58.480Z,18.68
2022-09-22T16:11:29.618Z,18.80
2022-09-22T16:14:00.548Z,18.90
2022-09-22T16:16:30.311Z,18.98
2022-09-22T16:18:58.801Z,19.07
2022-09-22T16:21:28.449Z,19.01
2022-09-22T16:24:00.486Z,18.89
2022-09-22T16:26:31.651Z,18.79
2022-09-22T16:28:59.823Z,18.79
2022-09-22T16:31:29.005Z,18.75
2022-09-22T16:33:58.379Z,18.73
2022-09-22T16:36:28.432Z,18.82
2022-09-22T16:38:56.806Z,18.85
2022-09-22T16:41:25.858Z,18.82
2022-09-22T16:43:54.552Z,18.77
2022-09-22T16:46:30.029Z,18.71
2022-09-22T16:49:03.921Z,18.50
2022-09-22T16:51:33.229Z,18.17
2022-09-22T16:54:01.406Z,17.81
2022-09-22T16:56:30.996Z,17.46
2022-09-22T16:59:01.250Z,17.12
2022-09-22T17:01:31.204Z,16.82
2022-09-22T17:04:00.455Z,16.53
2022-09-22T17:06:28.548Z,16.32
2022-09-22T17:08:58.027Z,16.12
2022-09-22T17:11:29.689Z,15.96
2022-09-22T17:13:59.812Z,15.81
2022-09-22T17:16:29.967Z,15.67
2022-09-22T17:19:03.010Z,15.49
2022-09-22T17:21:34.506Z,15.38
2022-09-22T17:24:03.538Z,15.25
2022-09-22T17:26:34.353Z,15.10
2022-09-22T17:29:02.487Z,15.02
2022-09-22T17:31:31.898Z,14.91
2022-09-22T17:34:01.431Z,14.82
2022-09-22T17:36:30.305Z,14.72
2022-09-22T17:38:59.623Z,14.65
2022-09-22T17:41:29.578Z,14.55
2022-09-22T17:43:58.746Z,14.47
2022-09-22T17:46:27.199Z,14.38
2022-09-22T17:49:12.974Z,14.32
2022-09-22T17:52:01.746Z,14.23
2022-09-22T17:54:50.018Z,14.15
2022-09-22T17:57:19.974Z,14.05
2022-09-22T17:59:48.399Z,13.99
2022-09-22T18:02:18.173Z,13.93
2022-09-22T18:04:47.356Z,13.88
2022-09-22T18:07:19.038Z,13.84
2022-09-22T18:09:48.039Z,13.80
2022-09-22T18:12:19.785Z,13.75
2022-09-22T18:14:49.880Z,13.73
2022-09-22T18:17:19.051Z,13.69
2022-09-22T18:19:47.229Z,13.64
2022-09-22T18:22:20.954Z,13.60
2022-09-22T18:24:50.389Z,13.56
2022-09-22T18:27:19.251Z,13.52
2022-09-22T18:29:49.916Z,13.48
2022-09-22T18:32:19.967Z,13.44
2022-09-22T18:34:52.869Z,13.38
2022-09-22T18:37:22.478Z,13.33
2022-09-22T18:39:50.597Z,13.27
2022-09-22T18:42:19.541Z,13.25
2022-09-22T18:44:47.940Z,13.21
2022-09-22T18:47:18.386Z,13.16
2022-09-22T18:49:48.217Z,13.13
2022-09-22T18:52:19.256Z,13.06
2022-09-22T18:54:48.608Z,13.03
2022-09-22T18:57:16.851Z,12.98
2022-09-22T18:59:44.649Z,12.96
2022-09-22T19:02:12.837Z,12.92
2022-09-22T19:04:41.091Z,12.88
2022-09-22T19:07:27.427Z,12.83
2022-09-22T19:09:56.674Z,12.82
2022-09-22T19:12:24.878Z,12.78
2022-09-22T19:14:57.319Z,12.74
2022-09-22T19:17:25.655Z,12.70
2022-09-22T19:19:53.420Z,12.68
2022-09-22T19:22:22.745Z,12.65
2022-09-22T19:24:52.457Z,12.59
2022-09-22T19:27:21.621Z,12.56
2022-09-22T19:29:50.538Z,12.51
2022-09-22T19:32:18.561Z,12.46
2022-09-22T19:34:46.428Z,12.42
2022-09-22T19:37:14.485Z,12.37
2022-09-22T19:39:42.310Z,12.33
2022-09-22T19:42:10.156Z,12.28
2022-09-22T19:44:40.101Z,12.25
2022-09-22T19:47:13.989Z,12.19
2022-09-22T19:49:42.216Z,12.16
2022-09-22T19:52:10.311Z,12.10
2022-09-22T19:54:38.083Z,12.09
2022-09-22T19:57:06.173Z,12.03
2022-09-22T19:59:34.014Z,12.02
2022-09-22T20:02:03.743Z,12.01
2022-09-22T20:04:34.854Z,11.96
2022-09-22T20:07:03.265Z,11.90
2022-09-22T20:09:31.082Z,11.88
2022-09-22T20:12:00.644Z,11.88
2022-09-22T20:14:31.378Z,11.83
2022-09-22T20:17:01.965Z,11.81
2022-09-22T20:19:32.713Z,11.79
2022-09-22T20:22:25.039Z,11.76
2022-09-22T20:24:55.511Z,11.71
2022-09-22T20:27:25.297Z,11.67
2022-09-22T20:29:57.126Z,11.65
2022-09-22T20:32:26.484Z,11.60
2022-09-22T20:34:56.825Z,11.58
2022-09-22T20:37:25.182Z,11.55
2022-09-22T20:39:53.115Z,11.51
2022-09-22T20:42:21.324Z,11.45
2022-09-22T20:44:49.521Z,11.39
2022-09-22T20:47:18.835Z,11.32
2022-09-22T20:49:51.598Z,11.27
2022-09-22T20:52:21.563Z,11.26
2022-09-22T20:54:49.515Z,11.20
2022-09-22T20:57:17.935Z,11.22
2022-09-22T20:59:47.437Z,11.20
2022-09-22T21:02:16.203Z,11.16
2022-09-22T21:04:52.907Z,11.17
2022-09-22T21:07:27.250Z,11.12
2022-09-22T21:10:12.623Z,11.11
2022-09-22T21:12:40.850Z,11.05
2022-09-22T21:15:09.486Z,10.98
2022-09-22T21:17:40.979Z,11.00
2022-09-22T21:20:11.367Z,11.00
2022-09-22T21:22:40.706Z,11.00
2022-09-22T21:25:10.892Z,10.97
2022-09-22T21:27:38.945Z,10.92
2022-09-22T21:30:08.327Z,10.91
2022-09-22T21:32:37.512Z,10.84
2022-09-22T21:35:06.671Z,10.87
2022-09-22T21:37:34.737Z,10.87
2022-09-22T21:40:04.461Z,10.83
2022-09-22T21:42:32.418Z,10.85
2022-09-22T21:45:00.712Z,10.87
2022-09-22T21:47:28.747Z,10.88
2022-09-22T21:49:56.406Z,10.92
2022-09-22T21:52:24.201Z,10.95
2022-09-22T21:54:52.101Z,11.00
2022-09-22T21:57:21.284Z,11.08
2022-09-22T21:59:49.162Z,11.15
2022-09-22T22:02:17.013Z,11.16
2022-09-22T22:04:46.456Z,11.13
2022-09-22T22:07:15.465Z,11.14
2022-09-22T22:09:43.292Z,11.12
2022-09-22T22:12:12.774Z,11.10
2022-09-22T22:14:43.897Z,11.10
2022-09-22T22:17:11.680Z,11.11
2022-09-22T22:19:39.396Z,11.11
2022-09-22T22:22:07.213Z,11.10
2022-09-22T22:24:40.046Z,11.11
2022-09-22T22:27:10.022Z,11.09
2022-09-22T22:29:38.883Z,11.08
2022-09-22T22:32:10.183Z,11.09
2022-09-22T22:34:38.310Z,11.09
2022-09-22T22:37:09.428Z,11.10
2022-09-22T22:39:37.441Z,11.11
2022-09-22T22:42:05.888Z,11.12
2022-09-22T22:44:35.074Z,11.11
2022-09-22T22:47:03.031Z,11.11
2022-09-22T22:49:32.492Z,11.11
2022-09-22T22:52:00.304Z,11.10
2022-09-22T22:54:28.072Z,11.13
2022-09-22T22:56:56.208Z,11.13
2022-09-22T22:59:24.002Z,11.12
2022-09-22T23:01:51.936Z,11.11
2022-09-22T23:04:21.146Z,11.08
2022-09-22T23:06:50.321Z,11.00
2022-09-22T23:09:18.395Z,11.04
2022-09-22T23:11:47.555Z,11.09
2022-09-22T23:14:15.987Z,11.08
2022-09-22T23:16:45.948Z,11.03
2022-09-22T23:19:16.011Z,10.90
2022-09-22T23:21:44.879Z,10.93
2022-09-22T23:24:16.662Z,10.93
2022-09-22T23:26:44.805Z,10.88
2022-09-22T23:29:12.699Z,10.86
2022-09-22T23:31:40.439Z,10.83
2022-09-22T23:34:08.333Z,10.75
2022-09-22T23:36:36.149Z,10.77
2022-09-22T23:39:04.728Z,10.71
2022-09-22T23:41:36.221Z,10.66
2022-09-22T23:44:06.503Z,10.63
2022-09-22T23:46:34.930Z,10.55
2022-09-22T23:49:02.725Z,10.56
2022-09-22T23:51:30.598Z,10.56
2022-09-22T23:53:59.172Z,10.52
2022-09-22T23:56:27.139Z,10.52
2022-09-22T23:58:56.278Z,10.50
